Time;durP1;ratioP1;P1;durP2;ratioP2;P2;SDS_P1;SDS_P2;PMS_P1;PMS_P2;Temp;Humidity;BMP_temperature;BMP_pressure;BME280_temperature;BME280_humidity;BME280_pressure;Samples;Min_cycle;Max_cycle;Signal;HPM_P1;HPM_P2
2022/10/08 06:53:35;;;;;;;22.00;15.65;;;22.60;99.90;;;;;;6234150;22;20023;31
2022/10/08 06:56:13;;;;;;;21.27;15.15;;;23.00;99.90;;;;;;6161415;23;20021;-92
2022/10/08 06:58:43;;;;;;;19.90;15.00;;;22.90;99.90;;;;;;6160258;23;20009;-93
2022/10/08 07:01:21;;;;;;;21.15;15.75;;;23.00;99.90;;;;;;6161288;23;20020;-93
2022/10/08 07:03:54;;;;;;;21.95;16.75;;;22.70;99.90;;;;;;6159208;23;20013;-92
2022/10/08 07:06:21;;;;;;;20.38;16.00;;;22.40;99.90;;;;;;6135042;23;20006;-91
2022/10/08 07:13:05;;;;;;;19.45;15.07;;;22.70;99.90;;;;;;6153239;22;20034;-92
2022/10/08 07:15:40;;;;;;;23.23;14.50;;;23.20;99.90;;;;;;6194188;23;20043;-92
2022/10/08 07:50:05;;;;;;;15.82;14.27;;;24.60;99.90;;;;;;6242554;22;20031;-93
2022/10/08 07:52:34;;;;;;;16.70;13.77;;;24.50;99.90;;;;;;6222743;23;20072;-93
2022/10/08 07:55:40;;;;;;;;;;;;;;;;;;;;;
2022/10/08 07:58:07;;;;;;;13.35;11.95;;;24.60;99.90;;;;;;6102910;23;20003;-93
2022/10/08 08:04:13;;;;;;;14.90;11.68;;;24.30;99.90;;;;;;6029080;23;20012;-93
2022/10/08 08:07:19;;;;;;;14.95;11.88;;;24.30;99.90;;;;;;6014099;23;20012;-93
2022/10/08 08:09:48;;;;;;;13.05;11.65;;;23.90;99.90;;;;;;6008334;23;20017;-92
2022/10/08 08:12:15;;;;;;;15.40;11.95;;;24.00;99.90;;;;;;6006171;23;20438;-93
2022/10/08 08:14:42;;;;;;;12.90;10.00;;;23.90;99.90;;;;;;6006857;23;20039;-93
2022/10/08 08:17:12;;;;;;;14.32;11.40;;;24.00;99.90;;;;;;6007441;23;20012;-94
2022/10/08 08:19:39;;;;;;;12.55;10.70;;;24.10;99.90;;;;;;6008439;23;20043;-93
2022/10/08 08:22:15;;;;;;;15.80;10.63;;;24.20;99.90;;;;;;6008220;23;20005;-93
2022/10/08 08:24:41;;;;;;;19.17;9.65;;;24.50;99.90;;;;;;6006918;23;20443;-92
2022/10/08 08:27:08;;;;;;;10.82;9.15;;;24.00;99.90;;;;;;6005804;23;20012;-92
2022/10/08 08:29:34;;;;;;;16.15;9.50;;;23.70;99.90;;;;;;6017103;22;20012;-93
2022/10/08 08:32:31;;;;;;;12.88;9.05;;;23.80;99.90;;;;;;6180633;23;20020;-92
2022/10/08 08:34:58;;;;;;;9.75;8.68;;;23.70;99.90;;;;;;6168356;23;20016;-93
2022/10/08 08:37:31;;;;;;;10.43;9.52;;;23.70;99.90;;;;;;6168476;23;20009;-92
2022/10/08 08:39:57;;;;;;;11.07;9.88;;;24.00;99.90;;;;;;6164829;23;20068;-93
2022/10/08 08:43:05;;;;;;;10.00;9.00;;;24.20;99.90;;;;;;6139240;23;20005;-93
2022/10/08 08:45:36;;;;;;;14.05;9.65;;;24.20;99.90;;;;;;6149769;23;20362;-91
2022/10/08 08:48:12;;;;;;;10.07;9.05;;;24.00;99.90;;;;;;6137869;23;20092;-91
2022/10/08 08:50:42;;;;;;;9.48;8.60;;;23.80;99.90;;;;;;6138058;23;20005;-92
2022/10/08 08:53:12;;;;;;;9.40;8.80;;;23.70;99.90;;;;;;6137997;23;20009;-92
2022/10/08 08:55:42;;;;;;;11.15;8.98;;;23.70;99.90;;;;;;6138044;23;20016;-92
2022/10/08 08:58:17;;;;;;;9.82;9.05;;;23.80;99.90;;;;;;6137757;23;20064;-91
2022/10/08 09:00:55;;;;;;;10.82;9.07;;;23.70;99.90;;;;;;6138662;23;20013;-94
2022/10/08 09:03:33;;;;;;;10.40;9.10;;;23.60;99.90;;;;;;6138148;23;20032;-93
2022/10/08 09:06:10;;;;;;;11.43;10.20;;;23.70;99.90;;;;;;6138484;23;20005;-92
2022/10/08 09:09:21;;;;;;;11.90;10.77;;;24.10;99.90;;;;;;6138143;23;20330;-91
2022/10/08 09:11:48;;;;;;;12.18;11.38;;;24.50;99.90;;;;;;6138372;23;20016;-92
2022/10/08 09:14:36;;;;;;;13.32;12.00;;;24.70;99.90;;;;;;6137759;23;20025;-92
2022/10/08 09:17:19;;;;;;;14.15;12.70;;;24.80;99.90;;;;;;6138776;23;20005;-93
2022/10/08 09:19:50;;;;;;;14.85;13.73;;;24.80;99.90;;;;;;6139618;23;20013;-92
2022/10/08 09:22:44;;;;;;;13.45;12.57;;;25.00;99.90;;;;;;6138174;23;20075;-93
2022/10/08 09:25:16;;;;;;;13.70;12.60;;;24.90;99.90;;;;;;6139023;23;20437;-91
2022/10/08 09:28:24;;;;;;;13.85;12.77;;;24.50;99.90;;;;;;6138886;23;20012;-93
2022/10/08 09:31:23;;;;;;;14.07;13.27;;;24.70;99.90;;;;;;6139653;23;20503;-95
2022/10/08 09:34:00;;;;;;;14.85;13.73;;;24.90;99.90;;;;;;6137717;23;20086;-94
2022/10/08 09:36:55;;;;;;;14.40;13.30;;;25.10;99.90;;;;;;6192712;23;20007;-94
2022/10/08 09:39:35;;;;;;;14.40;13.50;;;24.80;99.90;;;;;;6164024;23;20080;-94
2022/10/08 09:42:28;;;;;;;14.90;13.90;;;24.40;99.90;;;;;;6166035;23;20010;-94
2022/10/08 09:45:22;;;;;;;15.35;14.05;;;24.50;99.90;;;;;;6164392;23;20485;-95
2022/10/08 09:48:17;;;;;;;14.50;13.55;;;24.40;99.90;;;;;;6163912;23;20010;-92
2022/10/08 09:51:10;;;;;;;15.48;14.43;;;24.30;99.90;;;;;;6163179;23;20338;-92
2022/10/08 09:53:57;;;;;;;15.25;14.07;;;24.10;99.90;;;;;;6141658;23;20021;-95
2022/10/08 09:56:30;;;;;;;15.15;14.05;;;24.10;99.90;;;;;;6168715;23;20017;-95
2022/10/08 09:59:05;;;;;;;14.90;14.00;;;24.30;99.90;;;;;;6167772;23;20005;-93
2022/10/08 10:01:43;;;;;;;14.55;13.55;;;24.50;99.90;;;;;;6167226;23;20016;-94
2022/10/08 10:04:47;;;;;;;14.55;13.65;;;24.70;99.90;;;;;;6169448;23;20005;-93
2022/10/08 10:07:14;;;;;;;15.82;14.40;;;24.30;99.90;;;;;;6164146;23;20091;-91
2022/10/08 10:09:55;;;;;;;15.55;14.45;;;24.40;99.90;;;;;;6157449;23;20085;-93
2022/10/08 10:12:48;;;;;;;15.80;14.48;;;24.70;99.90;;;;;;6169792;23;20352;-94
2022/10/08 10:15:52;;;;;;;16.13;14.88;;;24.70;99.90;;;;;;6159931;23;20021;-93
2022/10/08 10:18:35;;;;;;;16.05;15.02;;;24.70;99.90;;;;;;6143075;23;20012;-95
2022/10/08 10:21:06;;;;;;;17.58;16.10;;;24.80;99.90;;;;;;6169279;23;20009;-95
2022/10/08 10:24:10;;;;;;;17.23;15.98;;;25.00;99.90;;;;;;6174632;23;20016;-94
2022/10/08 10:26:41;;;;;;;16.83;15.70;;;24.90;99.90;;;;;;6047994;23;20148;-94
2022/10/08 10:29:18;;;;;;;15.80;14.70;;;24.90;99.90;;;;;;6069028;23;20019;-93
2022/10/08 10:32:22;;;;;;;16.52;15.32;;;25.30;99.90;;;;;;6076032;23;20022;-92
2022/10/08 10:38:35;;;;;;;16.75;15.57;;;25.40;99.90;;;;;;6226164;23;20449;-94
2022/10/08 10:41:36;;;;;;;17.27;15.93;;;25.50;99.90;;;;;;6179401;23;20005;-93
2022/10/08 10:44:11;;;;;;;17.20;15.88;;;25.70;99.90;;;;;;6176260;23;20005;-94
2022/10/08 10:46:51;;;;;;;17.38;16.27;;;25.80;99.90;;;;;;6178127;23;20013;-94
2022/10/08 10:49:37;;;;;;;18.45;17.02;;;25.90;99.90;;;;;;6194530;23;20023;-95
2022/10/08 10:52:32;;;;;;;18.20;16.70;;;25.80;99.90;;;;;;6193590;23;19997;-93
2022/10/08 10:55:00;;;;;;;18.38;16.95;;;25.60;99.90;;;;;;6193981;23;20020;-94
2022/10/08 10:57:50;;;;;;;18.48;17.08;;;25.60;99.90;;;;;;6183079;23;20488;-94
2022/10/08 11:00:45;;;;;;;18.50;16.90;;;25.80;99.90;;;;;;6176402;23;20019;-94
2022/10/08 11:03:50;;;;;;;18.05;16.75;;;25.80;99.90;;;;;;6177681;23;20009;-95
2022/10/08 11:06:48;;;;;;;17.70;16.38;;;25.90;99.90;;;;;;6174333;23;20422;-94
2022/10/08 11:09:31;;;;;;;18.13;16.92;;;25.90;99.90;;;;;;6171720;23;20008;-94
2022/10/08 11:12:20;;;;;;;18.50;17.20;;;25.60;99.90;;;;;;6171303;23;20430;-94
2022/10/08 11:15:00;;;;;;;18.50;17.15;;;25.70;99.90;;;;;;6172482;23;20017;-93
2022/10/08 11:18:07;;;;;;;18.65;17.38;;;25.80;99.90;;;;;;6169863;23;20010;-93
2022/10/08 11:21:09;;;;;;;18.88;17.52;;;25.90;99.90;;;;;;6166331;23;20062;-94
2022/10/08 11:23:57;;;;;;;18.25;17.15;;;25.90;99.90;;;;;;6191702;23;20061;-94
2022/10/08 11:26:42;;;;;;;18.42;17.17;;;25.90;99.90;;;;;;6165989;23;20005;-93
2022/10/08 11:29:29;;;;;;;18.67;17.38;;;26.00;99.90;;;;;;6165819;23;20076;-91
2022/10/08 11:31:56;;;;;;;18.55;17.23;;;25.90;99.90;;;;;;6165714;23;20004;-92
2022/10/08 11:34:34;;;;;;;18.73;17.42;;;26.10;99.90;;;;;;6165899;23;20012;-93
2022/10/08 11:37:19;;;;;;;18.95;17.55;;;26.20;99.90;;;;;;6165310;23;20332;-92
2022/10/08 11:39:55;;;;;;;19.70;18.30;;;26.10;99.90;;;;;;6165662;23;20013;-92
2022/10/08 11:42:55;;;;;;;20.10;18.60;;;26.30;99.90;;;;;;6172622;23;20009;-93
2022/10/08 11:45:25;;;;;;;19.60;18.30;;;26.10;99.90;;;;;;6165670;23;20005;-93
2022/10/08 11:47:56;;;;;;;20.20;18.60;;;25.60;99.90;;;;;;6166309;23;20095;-94
2022/10/08 11:50:45;;;;;;;19.70;18.45;;;25.40;99.90;;;;;;6167832;23;20013;-94
2022/10/08 11:53:20;;;;;;;20.20;18.70;;;25.40;99.90;;;;;;6166299;23;20016;-94
2022/10/08 11:55:56;;;;;;;20.10;18.60;;;25.80;99.90;;;;;;6165914;23;20019;-93
2022/10/08 11:58:29;;;;;;;20.35;18.65;;;25.80;99.90;;;;;;6165778;23;20032;-93
2022/10/08 12:01:08;;;;;;;21.03;19.27;;;25.90;99.90;;;;;;6165913;23;20342;-93
2022/10/08 12:03:37;;;;;;;19.92;18.15;;;26.00;99.90;;;;;;6166063;23;20577;-94
2022/10/08 12:06:27;;;;;;;18.90;17.48;;;26.10;99.90;;;;;;6167797;23;20016;-93
2022/10/08 12:08:55;;;;;;;19.35;17.98;;;25.90;99.90;;;;;;6167710;23;20009;-92
2022/10/08 12:11:31;;;;;;;20.23;18.58;;;25.80;99.90;;;;;;6167751;23;20004;-93
2022/10/08 12:14:16;;;;;;;19.00;17.70;;;25.80;99.90;;;;;;6167494;23;20324;-93
2022/10/08 12:16:55;;;;;;;19.05;17.80;;;25.70;99.90;;;;;;6192252;23;20024;-93
2022/10/08 12:19:34;;;;;;;19.48;18.08;;;25.30;99.90;;;;;;6167894;23;20008;-93
2022/10/08 12:22:04;;;;;;;21.35;18.23;;;25.20;99.90;;;;;;6167618;23;20059;-95
2022/10/08 12:24:54;;;;;;;19.40;18.00;;;25.30;99.90;;;;;;6192649;23;20016;-92
2022/10/08 12:27:36;;;;;;;19.17;17.80;;;25.30;99.90;;;;;;6181602;23;20008;-93
2022/10/08 12:30:15;;;;;;;19.58;18.17;;;25.50;99.90;;;;;;6173304;23;20008;-94
2022/10/08 13:09:01;;;;;;;12.30;11.18;;;23.70;99.90;;;;;;6237154;22;20028;-93
2022/10/08 13:19:48;;;;;;;11.38;9.80;;;23.40;99.90;;;;;;6229396;22;20038;-93
2022/10/08 16:50:48;;;;;;;11.00;10.10;;;19.90;99.90;;;;;;6250296;23;20031;-94
2022/10/08 17:30:41;;;;;;;13.30;10.30;;;18.90;99.90;;;;;;6247906;22;20028;-92
2022/10/08 17:33:11;;;;;;;11.02;9.90;;;18.80;99.90;;;;;;6197942;23;20019;-92
2022/10/08 17:35:45;;;;;;;13.85;10.27;;;18.80;99.90;;;;;;6199294;22;20012;-95
2022/10/08 17:38:12;;;;;;;11.63;10.10;;;18.70;99.90;;;;;;6197159;23;20008;-93
2022/10/08 17:40:38;;;;;;;16.10;9.93;;;18.60;99.90;;;;;;6196895;23;20012;-94
2022/10/08 17:43:14;;;;;;;13.57;10.10;;;18.60;99.90;;;;;;6199901;23;20015;-92
2022/10/08 17:45:44;;;;;;;17.20;9.90;;;18.50;99.90;;;;;;6197269;23;20008;-93
2022/10/08 17:48:32;;;;;;;12.15;9.88;;;18.50;99.90;;;;;;6196881;22;20044;-93
2022/10/08 17:54:43;;;;;;;18.00;9.82;;;18.40;99.90;;;;;;6104853;23;20519;-91
2022/10/08 18:39:43;;;;;;;25.85;14.23;;;17.50;99.90;;;;;;6241700;22;20031;-93
2022/10/08 18:42:12;;;;;;;35.45;17.90;;;17.40;99.90;;;;;;6193330;23;20004;-92
2022/10/08 18:45:11;;;;;;;39.05;20.23;;;17.30;99.90;;;;;;6197376;23;20456;-92
2022/10/08 18:50:07;;;;;;;41.55;20.02;;;17.20;99.90;;;;;;6242055;22;20020;-91
2022/10/08 18:52:33;;;;;;;45.15;20.33;;;17.10;99.90;;;;;;6221256;23;20012;-91
2022/10/08 18:55:59;;;;;;;;;;;;;;;;;;;;;
2022/10/08 18:59:04;;;;;;;47.20;21.95;;;17.00;99.90;;;;;;6205769;23;20083;-92
2022/10/08 19:15:18;;;;;;;19.63;12.85;;;16.80;99.90;;;;;;6245245;22;20028;-92
2022/10/08 19:17:44;;;;;;;24.80;12.13;;;16.80;99.90;;;;;;6193069;23;20004;-91
2022/10/08 19:20:14;;;;;;;17.88;11.27;;;16.80;99.90;;;;;;6196210;23;20489;-91
2022/10/08 19:22:41;;;;;;;20.38;10.75;;;16.80;99.90;;;;;;6196042;23;20004;-92
2022/10/08 19:25:16;;;;;;;18.15;10.00;;;16.70;99.90;;;;;;6166185;23;20012;-93
2022/10/08 19:36:27;;;;;;;16.73;10.27;;;16.50;99.90;;;;;;6221758;22;20040;-93
2022/10/08 19:38:56;;;;;;;15.93;9.57;;;16.50;99.90;;;;;;6195613;23;20015;-92
2022/10/08 19:41:24;;;;;;;16.33;9.52;;;16.40;99.90;;;;;;6195770;23;20034;-92
2022/10/08 19:43:52;;;;;;;15.75;9.82;;;16.40;99.90;;;;;;6195409;23;20004;-91
2022/10/08 19:46:19;;;;;;;14.10;10.30;;;16.30;99.90;;;;;;6195959;23;20326;-90
2022/10/08 19:52:36;;;;;;;17.55;10.65;;;16.20;99.90;;;;;;6123867;23;20006;-92
2022/10/08 19:55:07;;;;;;;16.33;10.65;;;16.20;99.90;;;;;;6083653;23;20018;-92
2022/10/08 19:57:46;;;;;;;16.98;10.80;;;16.20;99.90;;;;;;6077772;23;20006;-92
2022/10/08 20:00:15;;;;;;;17.75;11.65;;;16.10;99.90;;;;;;6077231;23;20010;-92
2022/10/08 20:02:42;;;;;;;19.95;11.93;;;16.10;99.90;;;;;;6093484;23;20477;-92
2022/10/08 20:05:08;;;;;;;15.45;10.55;;;16.00;99.90;;;;;;6135078;23;20037;-92
2022/10/08 20:07:35;;;;;;;17.42;12.32;;;16.00;99.90;;;;;;6135561;23;20009;-92
2022/10/08 20:10:01;;;;;;;20.73;11.27;;;16.00;99.90;;;;;;6159875;23;20013;-93
2022/10/08 20:12:28;;;;;;;17.55;11.55;;;16.00;99.90;;;;;;6135181;23;20060;-92
2022/10/08 20:15:06;;;;;;;16.95;11.32;;;16.00;99.90;;;;;;6160608;23;20100;-92
2022/10/08 20:17:40;;;;;;;20.30;11.63;;;15.90;99.90;;;;;;6160144;23;20080;-93
2022/10/08 20:37:02;;;;;;;17.33;11.23;;;15.70;99.90;;;;;;6043985;23;20063;-93
2022/10/08 20:40:39;;;;;;;;;;;;;;;;;;;;;
2022/10/08 20:44:01;;;;;;;;;;;;;;;;;;;;;
2022/10/08 20:46:40;;;;;;;17.10;10.80;;;15.70;99.90;;;;;;5928744;24;20023;-92
2022/10/08 20:49:25;;;;;;;16.30;9.98;;;15.70;99.90;;;;;;5905874;24;20048;-92
2022/10/08 20:51:51;;;;;;;14.93;9.90;;;15.70;99.90;;;;;;5905348;24;20009;-92
2022/10/08 20:54:17;;;;;;;18.48;10.20;;;15.60;99.90;;;;;;5905934;24;20020;-93
2022/10/08 20:56:44;;;;;;;18.05;10.57;;;15.60;99.90;;;;;;5905403;24;20012;-93
2022/10/08 20:59:15;;;;;;;18.15;9.75;;;15.60;99.90;;;;;;5905676;24;20009;-92
2022/10/08 21:01:45;;;;;;;13.18;9.65;;;15.60;99.90;;;;;;5905747;24;20009;-93
2022/10/08 21:04:40;;;;;;;17.10;9.55;;;15.50;99.90;;;;;;5907216;24;20452;-93
2022/10/08 21:27:17;;;;;;;16.35;10.68;;;15.20;99.90;;;;;;6248397;22;20024;-92
2022/10/08 21:29:50;;;;;;;14.32;10.70;;;15.10;99.90;;;;;;6205192;23;20005;-92
2022/10/08 21:46:36;;;;;;;17.83;11.25;;;15.00;99.90;;;;;;6249496;22;20061;-92
2022/10/08 21:58:02;;;;;;;20.10;11.77;;;14.90;99.90;;;;;;6236455;22;20032;-92
2022/10/08 22:01:01;;;;;;;19.48;12.48;;;14.90;99.90;;;;;;6228510;22;20090;-92
2022/10/08 22:16:33;;;;;;;23.35;14.00;;;14.80;99.90;;;;;;6138421;23;20093;-93
2022/10/08 22:19:00;;;;;;;23.40;15.75;;;14.70;99.90;;;;;;6107353;23;20340;-91
2022/10/08 22:21:27;;;;;;;25.85;14.68;;;14.80;99.90;;;;;;6107060;23;20009;-91
2022/10/08 22:24:14;;;;;;;25.20;14.88;;;14.70;99.90;;;;;;6107269;23;20096;-90
2022/10/08 22:26:46;;;;;;;27.23;15.63;;;14.70;99.90;;;;;;6015648;23;20017;-91
2022/10/08 22:29:13;;;;;;;24.52;15.55;;;14.70;99.90;;;;;;6067992;23;20402;-92
2022/10/08 22:31:43;;;;;;;24.00;14.65;;;14.60;99.90;;;;;;6020291;23;20033;-91
2022/10/08 22:34:10;;;;;;;23.92;14.38;;;14.60;99.90;;;;;;6020006;23;20046;-91
2022/10/08 22:36:41;;;;;;;30.10;14.40;;;14.60;99.90;;;;;;6068087;23;20508;-92
2022/10/08 22:39:13;;;;;;;20.52;13.70;;;14.50;99.90;;;;;;6068041;23;20104;-92
2022/10/08 22:41:40;;;;;;;22.95;14.32;;;14.50;99.90;;;;;;6043704;23;20011;-90
2022/10/08 22:44:06;;;;;;;21.15;13.55;;;14.50;99.90;;;;;;6043577;23;20541;-90
2022/10/08 22:46:41;;;;;;;28.20;14.43;;;14.40;99.90;;;;;;6043957;23;20086;-93
2022/10/08 22:49:11;;;;;;;21.23;12.60;;;14.40;99.90;;;;;;6067179;23;20480;-92
2022/10/08 22:51:38;;;;;;;22.05;13.68;;;14.30;99.90;;;;;;6020277;23;20021;-92
2022/10/08 22:54:05;;;;;;;26.27;13.38;;;14.30;99.90;;;;;;6044051;23;20144;-92
2022/10/08 22:56:32;;;;;;;23.92;13.75;;;14.20;99.90;;;;;;6067560;23;20014;-92
2022/10/08 22:58:59;;;;;;;24.33;14.15;;;14.20;99.90;;;;;;6039103;23;20315;-91
2022/10/08 23:01:28;;;;;;;23.92;12.98;;;14.20;99.90;;;;;;6066033;23;20013;-90
2022/10/08 23:03:55;;;;;;;22.02;13.82;;;14.20;99.90;;;;;;6094363;23;20043;-92
2022/10/08 23:06:33;;;;;;;22.10;13.18;;;14.20;99.90;;;;;;6106851;23;20080;-92
2022/10/08 23:09:12;;;;;;;22.85;13.48;;;14.10;99.90;;;;;;6106895;23;20040;-93
2022/10/08 23:11:38;;;;;;;22.52;13.57;;;14.10;99.90;;;;;;6106864;23;20088;-91
2022/10/08 23:14:05;;;;;;;31.70;13.60;;;14.10;99.90;;;;;;6122293;23;20025;-91
2022/10/08 23:16:33;;;;;;;21.20;13.30;;;14.10;99.90;;;;;;6136279;23;20013;-91
2022/10/08 23:19:07;;;;;;;26.70;15.35;;;14.10;99.90;;;;;;6136000;23;20009;-91
2022/10/08 23:21:35;;;;;;;26.50;14.55;;;14.10;99.90;;;;;;6136186;23;20013;-91
2022/10/08 23:24:03;;;;;;;25.25;15.57;;;14.10;99.90;;;;;;6136087;23;20008;-91
2022/10/08 23:26:30;;;;;;;28.00;15.00;;;14.10;99.90;;;;;;6135978;23;20013;-91
2022/10/08 23:28:59;;;;;;;26.00;14.40;;;14.10;99.90;;;;;;6135993;23;20028;-92
2022/10/08 23:31:29;;;;;;;23.20;14.25;;;14.00;99.90;;;;;;6136649;23;20013;-92
2022/10/08 23:33:57;;;;;;;27.27;15.43;;;14.00;99.90;;;;;;6135767;23;20013;-91
2022/10/08 23:36:30;;;;;;;25.25;14.30;;;14.00;99.90;;;;;;6136169;23;20009;-92
2022/10/08 23:38:59;;;;;;;25.35;14.23;;;14.00;99.90;;;;;;6135689;23;20021;-91
2022/10/08 23:41:27;;;;;;;23.58;14.90;;;14.00;99.90;;;;;;6136075;23;20011;-92
2022/10/08 23:43:55;;;;;;;25.83;14.50;;;14.00;99.90;;;;;;6136084;23;20013;-91
2022/10/08 23:46:25;;;;;;;24.58;13.80;;;14.00;99.90;;;;;;6135961;23;20001;-91
2022/10/08 23:48:55;;;;;;;24.33;15.38;;;14.00;99.90;;;;;;6136276;23;20017;-92
2022/10/08 23:51:23;;;;;;;23.05;14.82;;;14.00;99.90;;;;;;6135773;23;20009;-91
2022/10/08 23:53:51;;;;;;;22.35;14.68;;;13.90;99.90;;;;;;6135722;23;20044;-92
2022/10/08 23:56:19;;;;;;;25.83;14.30;;;13.90;99.90;;;;;;6137082;23;20013;-91
2022/10/08 23:58:47;;;;;;;21.05;14.05;;;13.90;99.90;;;;;;6136925;23;20338;-92
